Time;durP1;ratioP1;P1;durP2;ratioP2;P2;SDS_P1;SDS_P2;PMS_P1;PMS_P2;Temp;Humidity;BMP_temperature;BMP_pressure;BME280_temperature;BME280_humidity;BME280_pressure;Samples;Min_cycle;Max_cycle;Signal;HPM_P1;HPM_P2
2022/06/11 00:01:26;;;;;;;3.28;2.10;;;;;;;11.83;100.00;100269.47;5080711;28;20139;-49
2022/06/11 00:04:15;;;;;;;4.30;2.10;;;;;;;11.67;100.00;100275.06;5081091;28;20411;-51
2022/06/11 00:07:11;;;;;;;3.67;2.50;;;;;;;11.76;100.00;100274.00;5081014;28;20090;-49
2022/06/11 00:09:56;;;;;;;3.92;2.45;;;;;;;11.73;100.00;100270.56;5079710;28;20500;-51
2022/06/11 00:12:41;;;;;;;4.93;2.42;;;;;;;11.82;100.00;100270.38;5079986;28;20082;-50
2022/06/11 00:15:25;;;;;;;3.90;2.70;;;;;;;11.80;100.00;100274.81;5080477;28;20032;-50
2022/06/11 00:18:10;;;;;;;3.55;2.45;;;;;;;11.80;100.00;100273.03;5082266;28;20695;-51
2022/06/11 00:20:54;;;;;;;4.43;2.42;;;;;;;11.69;100.00;100278.50;5079398;28;20059;-51
2022/06/11 00:23:40;;;;;;;6.72;2.63;;;;;;;11.72;100.00;100279.34;5081590;28;20062;-50
2022/06/11 00:26:25;;;;;;;5.50;2.65;;;;;;;11.67;100.00;100279.47;5083107;28;20036;-51
2022/06/11 00:29:11;;;;;;;5.47;3.22;;;;;;;11.48;100.00;100280.75;5079221;28;20453;-49
2022/06/11 00:31:56;;;;;;;3.67;3.03;;;;;;;11.51;100.00;100281.56;5081975;28;20048;-51
2022/06/11 00:34:42;;;;;;;4.28;2.95;;;;;;;11.57;100.00;100276.19;5082865;28;20040;-51
2022/06/11 00:37:27;;;;;;;6.47;2.65;;;;;;;11.55;100.00;100282.34;5081922;28;20059;-49
2022/06/11 00:40:15;;;;;;;7.22;2.90;;;;;;;11.58;100.00;100283.16;5081306;28;20067;-50
2022/06/11 00:43:00;;;;;;;4.85;2.85;;;;;;;11.45;100.00;100293.03;5079898;28;20063;-50
2022/06/11 00:45:50;;;;;;;5.88;2.65;;;;;;;11.46;100.00;100286.88;5080406;28;20432;-51
2022/06/11 00:48:39;;;;;;;3.85;2.55;;;;;;;11.47;100.00;100285.13;5081901;28;20053;-50
2022/06/11 00:51:24;;;;;;;3.95;2.45;;;;;;;11.41;100.00;100286.13;5080896;28;20083;-50
2022/06/11 00:54:15;;;;;;;3.55;2.17;;;;;;;11.40;100.00;100287.00;5081061;28;20101;-49
2022/06/11 00:57:02;;;;;;;5.40;2.28;;;;;;;11.33;100.00;100289.78;5080462;28;20039;-51
2022/06/11 00:59:53;;;;;;;3.20;2.38;;;;;;;11.36;100.00;100284.50;5070314;28;20402;-51
2022/06/11 01:02:37;;;;;;;3.90;2.60;;;;;;;11.38;100.00;100283.56;5082287;28;20059;-48
2022/06/11 01:05:30;;;;;;;3.67;2.85;;;;;;;11.33;100.00;100289.78;5079605;28;20044;-48
2022/06/11 01:08:25;;;;;;;4.72;2.38;;;;;;;11.33;100.00;100292.41;5082021;28;20047;-50
2022/06/11 01:11:27;;;;;;;2.78;2.33;;;;;;;11.35;100.00;100286.25;5082013;28;20051;-50
2022/06/11 01:14:21;;;;;;;3.55;2.20;;;;;;;11.36;100.00;100292.34;5081289;28;20125;-50
2022/06/11 01:17:24;;;;;;;;;;;;;;;11.25;100.00;100286.47;5083987;28;20528;-49
2022/06/11 01:20:29;;;;;;;3.72;2.28;;;;;;;11.16;100.00;100285.75;5082964;28;19975;-51
2022/06/11 01:23:35;;;;;;;2.58;2.13;;;;;;;11.15;100.00;100286.66;5084196;28;20047;-50
2022/06/11 01:26:38;;;;;;;3.28;2.40;;;;;;;11.12;100.00;100286.72;5086086;28;20036;-49
2022/06/11 01:29:52;;;;;;;3.03;2.13;;;;;;;10.94;100.00;100289.69;5087263;28;20105;-51
2022/06/11 01:32:42;;;;;;;4.82;2.78;;;;;;;10.91;100.00;100287.97;5072838;28;20085;-50
2022/06/11 01:35:33;;;;;;;5.03;2.55;;;;;;;10.99;100.00;100280.84;5087175;28;20474;-51
2022/06/11 01:38:28;;;;;;;3.92;2.28;;;;;;;10.91;100.00;100282.75;5087707;28;20100;-47
2022/06/11 01:41:33;;;;;;;3.42;2.30;;;;;;;11.01;100.00;100286.06;5086019;28;20059;-51
2022/06/11 01:44:25;;;;;;;3.55;2.80;;;;;;;10.98;100.00;100283.47;5082676;28;20394;-47
2022/06/11 01:47:14;;;;;;;3.65;2.10;;;;;;;10.97;100.00;100287.88;5084082;28;20086;-52
2022/06/11 01:49:59;;;;;;;4.88;2.42;;;;;;;10.93;100.00;100282.72;5082364;28;20186;-50
2022/06/11 01:53:00;;;;;;;4.53;2.38;;;;;;;10.86;100.00;100284.59;5084406;28;20100;-50
2022/06/11 01:55:47;;;;;;;3.55;2.85;;;;;;;10.87;100.00;100278.44;5085590;28;20059;-52
2022/06/11 01:58:38;;;;;;;4.70;2.45;;;;;;;10.90;100.00;100277.53;5085896;28;20051;-51
2022/06/11 02:01:35;;;;;;;3.20;2.35;;;;;;;10.89;100.00;100281.06;5084674;28;20075;-50
2022/06/11 02:04:31;;;;;;;4.18;2.45;;;;;;;10.81;100.00;100282.94;5084132;28;20051;-52
2022/06/11 02:07:22;;;;;;;3.80;2.88;;;;;;;10.73;100.00;100289.19;5084836;28;20138;-49
2022/06/11 02:10:16;;;;;;;3.95;2.65;;;;;;;10.62;100.00;100287.66;5082521;28;20059;-49
2022/06/11 02:13:03;;;;;;;;;;;;;;;10.66;100.00;100278.84;5084913;28;20489;-49
2022/06/11 02:16:00;;;;;;;4.53;2.67;;;;;;;10.61;100.00;100283.31;5084500;28;19923;-49
2022/06/11 02:18:48;;;;;;;5.90;2.60;;;;;;;10.55;100.00;100281.66;5085658;28;20059;-50
2022/06/11 02:21:39;;;;;;;2.95;2.15;;;;;;;10.61;100.00;100288.56;5082089;28;20083;-51
2022/06/11 02:24:35;;;;;;;5.55;2.60;;;;;;;10.62;100.00;100287.66;5082686;28;20051;-52
2022/06/11 02:27:25;;;;;;;5.93;2.92;;;;;;;10.42;100.00;100291.47;5084060;28;20043;-52
2022/06/11 02:30:12;;;;;;;4.40;2.92;;;;;;;10.55;100.00;100293.88;5081684;28;20140;-51
2022/06/11 02:32:58;;;;;;;2.95;2.25;;;;;;;10.43;100.00;100287.09;5084433;28;20040;-50
2022/06/11 02:35:58;;;;;;;4.28;3.33;;;;;;;10.42;100.00;100299.31;5082758;28;20113;-50
2022/06/11 02:38:43;;;;;;;3.72;2.25;;;;;;;10.48;100.00;100288.75;5085422;28;20181;-51
2022/06/11 02:41:32;;;;;;;4.45;2.78;;;;;;;10.47;100.00;100299.28;5085712;28;20048;-50
2022/06/11 02:44:17;;;;;;;5.75;2.53;;;;;;;10.45;100.00;100296.66;5084383;28;20051;-50
2022/06/11 02:47:03;;;;;;;4.70;2.40;;;;;;;10.44;100.00;100299.31;5081694;28;20502;-51
2022/06/11 02:49:50;;;;;;;2.92;2.40;;;;;;;10.46;100.00;100297.53;5085228;28;20048;-53
2022/06/11 02:52:34;;;;;;;4.07;2.28;;;;;;;10.42;100.00;100301.09;5083212;28;20055;-50
2022/06/11 02:55:19;;;;;;;4.20;2.50;;;;;;;10.42;100.00;100298.47;5080897;28;20358;-51
2022/06/11 02:58:06;;;;;;;4.22;3.13;;;;;;;10.44;100.00;100300.19;5083385;28;20051;-51
2022/06/11 03:00:50;;;;;;;5.65;3.75;;;;;;;10.49;100.00;100306.19;5081607;28;20052;-51
2022/06/11 03:03:36;;;;;;;6.03;3.58;;;;;;;10.47;100.00;100301.88;5085337;28;20575;-49
2022/06/11 03:06:24;;;;;;;4.13;2.95;;;;;;;10.46;100.00;100302.75;5083864;28;20055;-49
2022/06/11 03:09:11;;;;;;;4.20;3.03;;;;;;;10.52;100.00;100308.75;5083086;28;20055;-51
2022/06/11 03:11:57;;;;;;;4.32;3.03;;;;;;;10.56;100.00;100306.94;5081269;28;20063;-48
2022/06/11 03:14:42;;;;;;;5.00;3.60;;;;;;;10.55;100.00;100310.47;5082927;28;20054;-50
2022/06/11 03:17:28;;;;;;;3.13;2.70;;;;;;;10.47;100.00;100309.75;5080874;28;20043;-50
2022/06/11 03:20:14;;;;;;;5.05;2.97;;;;;;;10.50;100.00;100304.47;5085467;28;20059;-51
2022/06/11 03:22:58;;;;;;;4.22;2.67;;;;;;;10.51;100.00;100307.03;5083917;28;20109;-51
2022/06/11 03:25:43;;;;;;;3.67;2.78;;;;;;;10.64;100.00;100312.94;5085167;28;20047;-49
2022/06/11 03:28:29;;;;;;;3.20;2.60;;;;;;;10.59;100.00;100309.50;5069188;28;20101;-49
2022/06/11 03:31:14;;;;;;;4.35;3.20;;;;;;;10.61;100.00;100309.50;5081755;28;20182;-50
2022/06/11 03:33:59;;;;;;;3.88;3.03;;;;;;;10.67;100.00;100306.78;5085644;28;20129;-51
2022/06/11 03:36:44;;;;;;;4.57;2.88;;;;;;;10.77;100.00;100309.19;5082307;28;20055;-50
2022/06/11 03:39:30;;;;;;;4.80;3.33;;;;;;;10.71;100.00;100313.69;5084482;28;20058;-51
2022/06/11 03:42:14;;;;;;;3.90;3.50;;;;;;;10.93;100.00;100319.41;5084800;28;20051;-48
2022/06/11 03:44:59;;;;;;;3.90;3.50;;;;;;;11.08;100.00;100316.53;5083387;28;20051;-49
2022/06/11 03:47:44;;;;;;;6.07;4.95;;;;;;;11.19;100.00;100322.41;5085227;28;20131;-52
2022/06/11 03:50:32;;;;;;;9.15;6.10;;;;;;;11.27;100.00;100331.88;5084623;28;20052;-50
2022/06/11 03:53:17;;;;;;;7.72;6.05;;;;;;;11.44;100.00;100327.19;5083473;28;20048;-50
2022/06/11 03:56:04;;;;;;;7.45;5.20;;;;;;;11.69;100.00;100319.63;5084794;28;21018;-50
2022/06/11 03:58:49;;;;;;;5.30;3.90;;;;;;;11.72;100.00;100318.72;5083347;28;20055;-49
2022/06/11 04:01:34;;;;;;;7.55;3.70;;;;;;;11.95;100.00;100324.34;5081878;28;20051;-52
2022/06/11 04:04:20;;;;;;;6.80;3.25;;;;;;;12.10;100.00;100320.53;5084020;28;20052;-51
2022/06/11 04:07:05;;;;;;;4.30;3.40;;;;;;;12.35;100.00;100318.19;5081922;28;20048;-51
2022/06/11 04:09:50;;;;;;;6.32;3.10;;;;;;;12.77;100.00;100328.50;5084069;28;20379;-49
2022/06/11 04:12:34;;;;;;;4.10;3.00;;;;;;;13.66;100.00;100324.31;5069040;28;20059;-50
2022/06/11 04:15:18;;;;;;;5.03;2.83;;;;;;;14.21;100.00;100320.00;5079760;28;20082;-50
2022/06/11 04:18:05;;;;;;;4.65;3.00;;;;;;;14.61;100.00;100323.13;5079669;28;20052;-49
2022/06/11 04:20:49;;;;;;;2.63;2.20;;;;;;;14.80;100.00;100326.00;5078824;28;20059;-52
2022/06/11 04:23:35;;;;;;;6.38;2.90;;;;;;;15.41;100.00;100321.19;5079168;28;20129;-52
2022/06/11 04:26:28;;;;;;;3.30;2.78;;;;;;;15.76;100.00;100319.03;5081460;28;20153;-49
2022/06/11 04:29:16;;;;;;;5.00;2.97;;;;;;;16.24;100.00;100323.31;5079043;28;20052;-50
2022/06/11 04:32:04;;;;;;;6.20;3.00;;;;;;;16.46;100.00;100320.66;5078936;28;20489;-53
2022/06/11 04:34:49;;;;;;;6.30;3.22;;;;;;;16.95;100.00;100323.91;5066224;28;20071;-50
2022/06/11 04:37:34;;;;;;;3.22;2.92;;;;;;;17.20;100.00;100321.91;5078084;28;20052;-54
2022/06/11 04:40:18;;;;;;;3.65;2.65;;;;;;;17.73;100.00;100321.25;5079409;28;20083;-54
2022/06/11 04:43:03;;;;;;;7.03;3.80;;;;;;;17.94;100.00;100323.88;5078850;28;20044;-52
2022/06/11 04:45:49;;;;;;;4.43;3.17;;;;;;;17.89;100.00;100333.81;5078943;28;20052;-55
2022/06/11 04:48:34;;;;;;;3.42;2.47;;;;;;;17.43;100.00;100333.25;5080278;28;20508;-53
2022/06/11 04:51:20;;;;;;;3.85;3.20;;;;;;;17.64;100.00;100332.28;5080972;28;20474;-52
2022/06/11 04:54:05;;;;;;;3.95;3.08;;;;;;;18.05;100.00;100333.97;5082696;28;20576;-54
2022/06/11 04:56:49;;;;;;;4.43;3.03;;;;;;;18.73;100.00;100332.41;5084267;28;20064;-53
2022/06/11 04:59:33;;;;;;;5.38;3.20;;;;;;;18.62;100.00;100335.56;5083961;28;20040;-53
2022/06/11 05:02:18;;;;;;;5.40;3.85;;;;;;;19.62;100.00;100336.56;5084441;28;20055;-53
2022/06/11 05:05:03;;;;;;;4.72;4.07;;;;;;;19.82;100.00;100340.84;5082626;28;20051;-53
2022/06/11 05:07:49;;;;;;;5.30;3.58;;;;;;;20.25;100.00;100329.59;5083627;28;20043;-55
2022/06/11 05:10:34;;;;;;;4.80;3.22;;;;;;;20.70;100.00;100336.75;5083127;28;20093;-54
2022/06/11 05:13:19;;;;;;;4.38;3.67;;;;;;;20.91;100.00;100339.09;5082900;28;20071;-55
2022/06/11 05:16:04;;;;;;;4.65;3.42;;;;;;;20.66;100.00;100339.69;5084521;28;20070;-54
2022/06/11 05:18:49;;;;;;;5.63;3.08;;;;;;;21.21;100.00;100342.56;5084200;28;20098;-54
2022/06/11 05:21:34;;;;;;;4.05;2.60;;;;;;;21.00;100.00;100336.75;5082914;28;20062;-55
2022/06/11 05:24:22;;;;;;;3.05;1.98;;;;;;;21.53;100.00;100336.25;5086828;28;20051;-53
2022/06/11 05:27:13;;;;;;;2.13;1.85;;;;;;;21.08;100.00;100344.25;5068286;28;20044;-52
2022/06/11 05:30:07;;;;;;;2.00;1.58;;;;;;;22.05;100.00;100344.47;5086577;28;20093;-54
2022/06/11 05:32:53;;;;;;;1.77;1.30;;;;;;;21.09;100.00;100347.78;5086189;28;20487;-55
2022/06/11 05:35:38;;;;;;;3.13;1.48;;;;;;;21.77;100.00;100345.34;5086084;28;20051;-53
2022/06/11 05:38:30;;;;;;;1.27;1.10;;;;;;;21.38;100.00;100356.69;5086208;28;20093;-54
2022/06/11 05:41:14;;;;;;;;;;;;;;;21.33;100.00;100356.09;5087954;28;20051;-53
2022/06/11 05:43:59;;;;;;;1.92;1.17;;;;;;;22.19;100.00;100350.75;5084402;28;20300;-55
2022/06/11 05:46:43;;;;;;;3.03;1.70;;;;;;;21.74;100.00;100353.53;5087689;28;20047;-56
2022/06/11 05:49:34;;;;;;;3.53;1.20;;;;;;;22.64;97.88;100354.88;5083324;28;20044;-55
2022/06/11 05:52:23;;;;;;;1.83;1.10;;;;;;;23.04;96.37;100354.88;5084000;28;20086;-56
2022/06/11 05:55:09;;;;;;;2.33;1.83;;;;;;;22.92;99.57;100358.38;5081902;28;20198;-55
2022/06/11 05:58:01;;;;;;;1.58;1.23;;;;;;;22.69;93.16;100350.09;5080814;28;20090;-53
2022/06/11 06:00:46;;;;;;;3.20;1.20;;;;;;;22.24;96.63;100354.00;5082014;28;20052;-55
2022/06/11 06:03:31;;;;;;;3.58;0.85;;;;;;;22.98;94.66;100360.66;5083091;28;20052;-53
2022/06/11 06:06:16;;;;;;;1.45;0.68;;;;;;;23.59;95.09;100356.41;5084203;28;20151;-56
2022/06/11 06:09:01;;;;;;;1.35;0.80;;;;;;;23.68;93.35;100362.91;5083361;28;20045;-56
2022/06/11 06:11:45;;;;;;;1.60;0.82;;;;;;;22.67;94.25;100361.84;5085157;28;20062;-56
2022/06/11 06:14:30;;;;;;;2.47;0.50;;;;;;;24.18;93.67;100362.00;5085956;28;20055;-56
2022/06/11 06:17:14;;;;;;;2.05;0.80;;;;;;;23.82;92.38;100364.63;5086071;28;20078;-55
2022/06/11 06:19:59;;;;;;;1.85;0.93;;;;;;;24.26;90.14;100364.09;5086243;28;20059;-56
2022/06/11 06:22:43;;;;;;;0.82;0.70;;;;;;;24.34;88.50;100366.19;5087510;28;20062;-54
2022/06/11 06:25:28;;;;;;;1.55;0.73;;;;;;;23.84;86.30;100371.59;5087113;28;20055;-55
2022/06/11 06:28:13;;;;;;;1.50;0.57;;;;;;;23.95;86.91;100362.78;5087295;28;20398;-55
2022/06/11 06:30:58;;;;;;;1.20;0.50;;;;;;;24.38;87.19;100367.72;5086570;28;20430;-55
2022/06/11 06:33:44;;;;;;;1.05;0.52;;;;;;;24.23;86.87;100365.16;5086509;28;20063;-56
2022/06/11 06:36:30;;;;;;;1.30;0.50;;;;;;;24.80;85.15;100365.50;5085447;28;20390;-54
2022/06/11 06:39:15;;;;;;;0.80;0.50;;;;;;;25.19;80.15;100364.31;5083521;28;20692;-55
2022/06/11 06:41:59;;;;;;;1.67;0.40;;;;;;;25.41;78.79;100371.50;5087438;28;20444;-57
2022/06/11 06:44:44;;;;;;;1.15;0.40;;;;;;;25.30;80.36;100369.69;5086768;28;20051;-55
2022/06/11 06:47:28;;;;;;;0.47;0.30;;;;;;;24.94;78.89;100368.81;5082031;28;20051;-56
2022/06/11 06:50:13;;;;;;;1.58;0.55;;;;;;;25.85;74.07;100368.03;5086325;28;20059;-56
2022/06/11 06:52:57;;;;;;;1.23;0.22;;;;;;;26.11;71.51;100370.44;5083305;28;20078;-54
2022/06/11 06:55:42;;;;;;;2.47;0.43;;;;;;;25.67;70.19;100368.59;5081432;28;20102;-54
2022/06/11 06:58:27;;;;;;;0.65;0.20;;;;;;;24.67;72.11;100368.25;5084022;28;20051;-55
2022/06/11 07:01:12;;;;;;;4.63;0.40;;;;;;;24.94;73.96;100366.16;5086194;28;20040;-56
2022/06/11 07:03:57;;;;;;;1.70;0.52;;;;;;;24.94;71.74;100370.66;5084165;28;20044;-56
2022/06/11 07:06:41;;;;;;;1.40;0.28;;;;;;;25.72;73.42;100363.75;5081376;28;20089;-58
2022/06/11 07:09:26;;;;;;;2.72;0.43;;;;;;;26.85;64.27;100370.63;5082034;28;20059;-54
2022/06/11 07:12:10;;;;;;;2.42;0.20;;;;;;;27.41;61.39;100364.09;5083128;28;20141;-54
2022/06/11 07:14:54;;;;;;;0.82;0.10;;;;;;;27.22;61.37;100367.50;5083394;28;20079;-56
2022/06/11 07:17:48;;;;;;;0.80;0.17;;;;;;;27.27;58.30;100366.13;5081908;28;20070;-57
2022/06/11 07:20:34;;;;;;;1.98;0.50;;;;;;;26.93;60.04;100372.66;5084675;28;20474;-56
2022/06/11 07:23:24;;;;;;;0.52;0.30;;;;;;;26.87;59.76;100365.09;5083185;28;20036;-57
2022/06/11 07:26:13;;;;;;;0.20;0.10;;;;;;;27.54;61.59;100367.41;5081415;28;20440;-56
2022/06/11 07:29:01;;;;;;;0.93;0.32;;;;;;;27.72;61.19;100371.19;5082496;28;20092;-55
2022/06/11 07:31:49;;;;;;;2.53;0.20;;;;;;;27.79;62.08;100376.91;5084871;28;20062;-55
2022/06/11 07:34:34;;;;;;;0.30;0.10;;;;;;;27.74;59.17;100371.88;5085621;28;20098;-55
2022/06/11 07:37:19;;;;;;;0.70;0.20;;;;;;;28.22;59.88;100367.69;5080142;28;20079;-55
2022/06/11 07:40:05;;;;;;;1.20;0.17;;;;;;;28.23;57.07;100365.84;5076693;28;20051;-56
2022/06/11 07:42:50;;;;;;;0.17;0.08;;;;;;;27.65;56.10;100374.53;5080111;28;20040;-56
2022/06/11 07:45:37;;;;;;;2.25;0.20;;;;;;;27.47;55.48;100366.25;5078524;28;20054;-57
2022/06/11 07:48:22;;;;;;;1.38;0.22;;;;;;;28.15;55.39;100367.38;5080062;28;20055;-56
2022/06/11 07:51:06;;;;;;;4.43;0.20;;;;;;;28.34;49.03;100371.09;5083564;28;20060;-56
2022/06/11 07:53:51;;;;;;;0.65;0.25;;;;;;;29.00;50.51;100371.31;5078151;28;20044;-57
2022/06/11 07:56:37;;;;;;;1.40;0.30;;;;;;;28.18;54.54;100369.81;5065985;28;20044;-55
2022/06/11 07:59:22;;;;;;;0.93;0.30;;;;;;;28.32;54.10;100368.53;5080421;28;20413;-55
2022/06/11 08:02:06;;;;;;;2.35;0.20;;;;;;;28.92;50.07;100368.44;5081833;28;20448;-56
2022/06/11 08:04:52;;;;;;;2.13;0.40;;;;;;;28.54;49.32;100366.63;5082794;28;20048;-56
2022/06/11 08:07:36;;;;;;;1.42;0.20;;;;;;;28.29;50.37;100362.59;5082876;28;20052;-56
2022/06/11 08:10:24;;;;;;;0.95;0.10;;;;;;;29.48;49.82;100367.69;5079017;28;20040;-56
2022/06/11 08:13:10;;;;;;;1.58;0.40;;;;;;;29.38;47.03;100369.56;5081455;28;20143;-55
2022/06/11 08:15:54;;;;;;;0.80;0.20;;;;;;;29.28;47.79;100366.00;5081934;28;20051;-54
2022/06/11 08:18:39;;;;;;;0.85;0.20;;;;;;;28.74;50.43;100362.94;5082281;28;20047;-56
2022/06/11 08:21:23;;;;;;;1.73;0.50;;;;;;;28.52;45.59;100353.28;5081323;28;20043;-55
2022/06/11 08:24:08;;;;;;;1.55;0.57;;;;;;;28.11;44.83;100371.34;5083879;28;20491;-57
2022/06/11 08:26:52;;;;;;;0.50;0.10;;;;;;;28.63;44.62;100363.06;5086745;28;20517;-55
2022/06/11 08:29:37;;;;;;;1.55;0.13;;;;;;;26.61;44.02;100361.91;5084143;28;20151;-56
2022/06/11 08:32:21;;;;;;;3.60;1.08;;;;;;;27.71;44.14;100363.22;5087748;28;20059;-56
2022/06/11 08:35:06;;;;;;;1.25;0.22;;;;;;;29.13;44.80;100362.09;5090064;28;20047;-55
2022/06/11 08:37:51;;;;;;;3.63;0.38;;;;;;;28.93;40.94;100362.09;5088320;28;20044;-56
2022/06/11 08:40:48;;;;;;;2.65;0.30;;;;;;;28.30;43.09;100357.06;5089978;28;20079;-56
2022/06/11 08:43:36;;;;;;;1.48;0.52;;;;;;;28.25;46.31;100350.41;5087032;28;20502;-54
2022/06/11 08:46:24;;;;;;;2.33;0.20;;;;;;;26.87;46.02;100352.50;5087780;28;20055;-55
2022/06/11 08:49:15;;;;;;;4.00;0.20;;;;;;;29.40;42.80;100356.75;5087984;28;20094;-55
2022/06/11 08:52:10;;;;;;;2.13;0.47;;;;;;;29.15;45.99;100355.53;5087655;28;20051;-55
2022/06/11 08:54:58;;;;;;;2.85;0.40;;;;;;;28.83;41.87;100351.31;5088247;28;20047;-55
2022/06/11 08:57:52;;;;;;;1.05;0.25;;;;;;;28.66;43.91;100354.69;5087185;28;20127;-55
2022/06/11 09:00:54;;;;;;;2.20;0.30;;;;;;;28.37;41.93;100354.66;5088199;28;20086;-56
2022/06/11 09:04:11;;;;;;;3.10;0.10;;;;;;;28.03;42.30;100359.56;5085570;28;20040;-56
2022/06/11 09:07:05;;;;;;;1.25;0.30;;;;;;;28.81;44.27;100353.28;5091872;28;20470;-56
2022/06/11 09:10:17;;;;;;;1.88;0.40;;;;;;;27.08;45.28;100352.53;5088999;28;20051;-55
2022/06/11 09:13:13;;;;;;;3.42;0.40;;;;;;;28.62;42.51;100351.44;5090583;28;20671;-54
2022/06/11 09:16:16;;;;;;;4.28;1.08;;;;;;;26.29;48.32;100355.53;5088109;28;20195;-56
2022/06/11 09:19:52;;;;;;;3.70;0.20;;;;;;;27.00;47.70;100346.94;5086446;28;20060;-53
2022/06/11 09:23:01;;;;;;;1.42;0.52;;;;;;;27.38;47.63;100346.38;5041734;28;20143;-55
2022/06/11 09:26:08;;;;;;;2.20;0.30;;;;;;;28.38;45.13;100346.44;5089712;28;20047;-55
2022/06/11 09:29:15;;;;;;;0.60;0.22;;;;;;;28.51;44.73;100348.06;5074223;28;20074;-54
2022/06/11 09:32:06;;;;;;;1.45;0.40;;;;;;;28.69;41.97;100346.34;5089484;28;20048;-54
2022/06/11 09:34:54;;;;;;;4.13;0.77;;;;;;;27.87;44.07;100338.53;5085775;28;20051;-54
2022/06/11 09:38:07;;;;;;;2.15;0.57;;;;;;;27.48;45.44;100336.50;5088584;28;20040;-55
2022/06/11 09:41:00;;;;;;;2.72;0.40;;;;;;;26.21;49.78;100346.41;5087527;28;20079;-53
2022/06/11 09:44:18;;;;;;;1.25;0.22;;;;;;;27.46;47.58;100332.25;5085725;28;20105;-54
2022/06/11 09:47:32;;;;;;;2.20;0.28;;;;;;;28.68;43.17;100330.31;5087740;28;20382;-53
2022/06/11 09:50:35;;;;;;;3.70;0.28;;;;;;;27.94;46.26;100334.31;5063224;28;20067;-55
2022/06/11 09:53:19;;;;;;;1.77;0.52;;;;;;;28.21;47.15;100333.69;5087403;28;20140;-55
2022/06/11 09:56:07;;;;;;;3.55;0.22;;;;;;;27.65;45.03;100329.63;5085511;28;20605;-55
2022/06/11 09:59:00;;;;;;;4.47;1.90;;;;;;;28.81;43.04;100325.50;5086562;28;20104;-55
2022/06/11 10:01:52;;;;;;;4.55;0.80;;;;;;;28.34;44.61;100322.59;5087726;28;20048;-54
2022/06/11 10:04:42;;;;;;;2.65;0.50;;;;;;;28.45;44.79;100324.38;5086668;28;20093;-55
2022/06/11 10:07:42;;;;;;;2.67;0.55;;;;;;;28.87;42.52;100322.22;5089396;28;20044;-54
2022/06/11 10:10:33;;;;;;;3.10;0.70;;;;;;;28.09;40.89;100324.84;5087505;28;20104;-54
2022/06/11 10:13:37;;;;;;;2.80;0.20;;;;;;;29.25;41.35;100323.16;5084183;28;20417;-56
2022/06/11 10:16:49;;;;;;;3.13;1.08;;;;;;;28.49;44.46;100313.16;5080918;28;20141;-56
2022/06/11 10:19:45;;;;;;;;;;;;;;;28.11;44.95;100327.41;5083773;28;20047;-55
2022/06/11 10:22:41;;;;;;;0.70;0.20;;;;;;;27.41;44.33;100316.53;5083903;28;20031;-53
2022/06/11 10:25:37;;;;;;;2.58;0.30;;;;;;;28.21;45.03;100312.13;5083094;28;20040;-54
2022/06/11 10:28:46;;;;;;;1.48;0.20;;;;;;;28.10;41.75;100310.41;5083570;28;20063;-52
2022/06/11 10:32:02;;;;;;;3.63;0.32;;;;;;;28.63;43.61;100310.06;5085184;28;20055;-55
2022/06/11 10:34:58;;;;;;;1.95;0.40;;;;;;;28.97;43.99;100317.66;5082404;28;20105;-53
2022/06/11 10:38:06;;;;;;;3.00;0.50;;;;;;;26.90;43.26;100317.31;5080957;28;20097;-54
2022/06/11 10:40:52;;;;;;;2.60;0.28;;;;;;;27.39;43.17;100304.19;5056208;28;20055;-54
2022/06/11 10:44:09;;;;;;;0.93;0.30;;;;;;;27.86;44.03;100300.00;5082830;28;20048;-55
2022/06/11 10:46:54;;;;;;;0.60;0.30;;;;;;;27.02;44.59;100294.78;5052727;28;20420;-53
2022/06/11 10:49:39;;;;;;;1.20;0.22;;;;;;;26.73;44.44;100299.94;5082445;28;20556;-54
2022/06/11 10:52:41;;;;;;;1.92;0.30;;;;;;;28.45;42.92;100292.06;5083684;28;20076;-53
2022/06/11 10:55:33;;;;;;;2.15;0.68;;;;;;;28.23;45.11;100288.59;5083375;28;20059;-53
2022/06/11 10:58:22;;;;;;;0.98;0.40;;;;;;;26.38;47.74;100294.84;5083197;28;20078;-55
2022/06/11 11:01:18;;;;;;;2.70;0.45;;;;;;;27.34;48.54;100290.31;5081912;28;20060;-55
2022/06/11 11:04:18;;;;;;;1.33;0.30;;;;;;;27.51;45.82;100286.97;5083371;28;20074;-54
2022/06/11 11:07:19;;;;;;;4.22;0.55;;;;;;;26.19;46.32;100286.59;5081912;28;20044;-54
2022/06/11 11:10:16;;;;;;;2.28;0.40;;;;;;;26.10;51.52;100283.72;5082163;28;20047;-54
2022/06/11 11:13:14;;;;;;;3.33;0.70;;;;;;;27.03;45.88;100279.50;5083659;28;20418;-54
2022/06/11 11:16:15;;;;;;;1.52;0.35;;;;;;;26.01;48.79;100276.41;5082995;28;20055;-54
2022/06/11 11:19:13;;;;;;;3.00;0.47;;;;;;;26.61;46.19;100279.50;5084886;28;20051;-53
2022/06/11 11:22:09;;;;;;;3.00;0.80;;;;;;;26.41;47.11;100272.25;5082807;28;20044;-54
2022/06/11 11:24:54;;;;;;;1.23;0.47;;;;;;;25.22;47.93;100282.78;5082930;28;20052;-54
2022/06/11 11:27:45;;;;;;;5.55;0.52;;;;;;;24.97;51.03;100282.00;5082242;28;20047;-53
2022/06/11 11:30:38;;;;;;;1.85;0.50;;;;;;;25.09;53.07;100265.00;5068215;28;20109;-55
2022/06/11 11:33:43;;;;;;;1.25;0.30;;;;;;;26.64;48.58;100271.19;5079794;28;20063;-54
2022/06/11 11:36:30;;;;;;;1.13;0.20;;;;;;;26.09;50.54;100267.72;5081765;28;20119;-53
2022/06/11 11:39:15;;;;;;;3.75;0.30;;;;;;;25.61;50.47;100262.69;5083138;28;20096;-53
2022/06/11 11:42:02;;;;;;;3.60;0.82;;;;;;;24.90;52.03;100267.41;5081237;28;20398;-55
2022/06/11 11:44:51;;;;;;;4.43;1.08;;;;;;;25.22;50.31;100272.06;5083832;28;20276;-54
2022/06/11 11:47:39;;;;;;;2.25;0.47;;;;;;;25.44;50.54;100268.53;5078168;28;20808;-54
2022/06/11 11:50:29;;;;;;;2.53;0.60;;;;;;;26.48;50.12;100273.47;5083733;28;20449;-55
2022/06/11 11:53:21;;;;;;;3.95;0.52;;;;;;;26.98;49.22;100257.56;5082470;28;20403;-55
2022/06/11 11:56:24;;;;;;;2.78;0.40;;;;;;;27.76;46.98;100257.91;5083651;28;20101;-54
2022/06/11 11:59:25;;;;;;;0.90;0.20;;;;;;;27.37;48.27;100257.78;5083724;28;20044;-55
2022/06/11 12:02:24;;;;;;;2.28;0.52;;;;;;;27.52;48.19;100263.63;5084435;28;20181;-53
2022/06/11 12:05:19;;;;;;;4.13;0.20;;;;;;;27.87;47.22;100255.97;5084885;28;20424;-55
2022/06/11 12:08:13;;;;;;;1.52;0.40;;;;;;;27.16;47.42;100264.03;5081859;28;20101;-54
2022/06/11 12:11:01;;;;;;;1.08;0.20;;;;;;;26.53;50.40;100261.34;5083052;28;20109;-55
2022/06/11 12:13:50;;;;;;;1.77;0.35;;;;;;;27.13;45.94;100260.72;5080086;28;20058;-55
2022/06/11 12:16:43;;;;;;;2.35;0.40;;;;;;;25.76;49.77;100258.75;5083535;28;20044;-55
2022/06/11 12:19:32;;;;;;;1.42;0.20;;;;;;;26.09;53.89;100257.84;5079575;28;20070;-55
2022/06/11 12:22:25;;;;;;;2.38;0.40;;;;;;;25.34;52.53;100255.03;5080650;28;20048;-55
2022/06/11 12:25:24;;;;;;;2.88;0.35;;;;;;;26.32;50.27;100265.81;5078973;28;20040;-53
2022/06/11 12:28:13;;;;;;;2.92;0.40;;;;;;;26.38;55.27;100259.94;5084014;28;20502;-54
2022/06/11 12:30:58;;;;;;;2.47;0.30;;;;;;;26.47;47.05;100259.16;5083996;28;20047;-54
2022/06/11 12:33:45;;;;;;;3.15;0.30;;;;;;;25.53;50.33;100257.09;5080371;28;20057;-53
2022/06/11 12:36:56;;;;;;;2.38;0.30;;;;;;;26.46;54.21;100260.16;5083370;28;20584;-55
2022/06/11 12:40:07;;;;;;;2.05;0.43;;;;;;;26.17;48.78;100254.53;5087840;28;20043;-53
2022/06/11 12:43:02;;;;;;;1.75;0.35;;;;;;;26.34;47.50;100251.28;5078515;28;20052;-55
2022/06/11 12:46:02;;;;;;;1.92;0.32;;;;;;;26.75;46.43;100246.97;5079039;28;20882;-53
2022/06/11 12:49:18;;;;;;;2.13;0.55;;;;;;;26.82;52.36;100249.97;5080669;28;20067;-54
2022/06/11 12:52:11;;;;;;;2.47;0.50;;;;;;;25.79;48.18;100238.88;5079556;28;20513;-54
2022/06/11 12:55:13;;;;;;;;;;;;;;;27.14;47.49;100244.53;5078624;28;20047;-56
2022/06/11 12:58:01;;;;;;;1.83;0.38;;;;;;;26.54;47.97;100238.03;5078181;28;19978;-54
2022/06/11 13:00:54;;;;;;;4.93;1.27;;;;;;;25.79;51.10;100238.88;5077652;28;20551;-54
2022/06/11 13:04:12;;;;;;;2.53;0.52;;;;;;;26.77;49.25;100236.91;5082067;28;20121;-55
2022/06/11 13:07:03;;;;;;;3.58;0.40;;;;;;;26.02;51.95;100248.59;5079997;28;20071;-55
2022/06/11 13:10:02;;;;;;;2.38;0.43;;;;;;;25.99;50.59;100235.44;5082508;28;20173;-54